Terminal Aerodrome Forecast
Issued by NWS

Current Version | Previous Version | Graphics & Text | Print | Product List | Glossary On
Versions: 1 2 3 4 5 6 7 8 9 10 11 12 13 14 15 16 17 18
000
FTUS41 KPBZ 221748
TAFHLG
TAF
KHLG 221748Z 2218/2318 21008G15KT P6SM SCT030 BKN100
     FM230000 22009KT P6SM BKN080
     FM230700 20007KT 6SM -SHRA OVC015
     FM231500 21012G20KT P6SM -SHRA VCTS BKN025CB=

USA.gov is the U.S. government's official web portal to all federal, state and local government web resources and services.